Time,TemperatureF,DewpointF,PressureIn,WindDirection,WindDirectionDegrees,WindSpeedMPH,WindSpeedGustMPH,Humidity,HourlyPrecipIn,Conditions,Clouds,dailyrainin,SoftwareType,DateUTC
2013-08-27 00:06:00,64.4,64.1,29.97,West,270,0.0,-999.0,99,-99.99,,,0.00,Acu-Link.com,2013-08-27 04:06:00,
2013-08-27 00:21:00,64.2,63.9,29.97,West,270,0.0,-999.0,99,-99.99,,,0.00,Acu-Link.com,2013-08-27 04:21:00,
2013-08-27 00:37:00,64.0,63.7,29.97,West,270,0.0,-999.0,99,-99.99,,,0.00,Acu-Link.com,2013-08-27 04:37:00,
2013-08-27 00:52:00,63.7,63.4,29.97,West,270,0.0,-999.0,99,-99.99,,,0.00,Acu-Link.com,2013-08-27 04:52:00,
2013-08-27 01:07:00,63.3,63.0,29.97,West,270,0.0,-999.0,99,-99.99,,,0.00,Acu-Link.com,2013-08-27 05:07:00,
2013-08-27 01:22:00,63.1,62.8,29.98,West,270,0.0,-999.0,99,-99.99,,,0.00,Acu-Link.com,2013-08-27 05:22:00,
2013-08-27 01:37:00,63.0,62.7,29.97,West,270,0.0,-999.0,99,-99.99,,,0.00,Acu-Link.com,2013-08-27 05:37:00,
2013-08-27 01:52:00,62.8,62.5,29.97,West,270,0.0,-999.0,99,-99.99,,,0.00,Acu-Link.com,2013-08-27 05:52:00,
2013-08-27 02:07:00,62.6,62.3,29.97,WSW,247,0.0,-999.0,99,-99.99,,,0.00,Acu-Link.com,2013-08-27 06:07:00,
2013-08-27 02:22:00,62.4,62.1,29.96,WSW,247,0.0,-999.0,99,-99.99,,,0.00,Acu-Link.com,2013-08-27 06:22:00,
2013-08-27 02:37:00,62.2,61.9,29.96,WSW,247,0.0,-999.0,99,-99.99,,,0.00,Acu-Link.com,2013-08-27 06:37:00,
2013-08-27 02:52:00,61.9,61.6,29.97,WSW,247,0.0,-999.0,99,-99.99,,,0.00,Acu-Link.com,2013-08-27 06:52:00,
2013-08-27 03:08:00,61.9,61.6,29.96,WSW,247,0.0,-999.0,99,-99.99,,,0.00,Acu-Link.com,2013-08-27 07:08:00,
2013-08-27 03:23:00,61.9,61.6,29.96,WSW,247,0.0,-999.0,99,-99.99,,,0.00,Acu-Link.com,2013-08-27 07:23:00,
2013-08-27 03:38:00,61.9,61.6,29.96,WSW,247,0.0,-999.0,99,-99.99,,,0.00,Acu-Link.com,2013-08-27 07:38:00,
2013-08-27 03:53:00,61.9,61.6,29.96,WSW,247,0.0,-999.0,99,-99.99,,,0.00,Acu-Link.com,2013-08-27 07:53:00,
2013-08-27 04:12:00,61.7,61.4,29.95,WSW,247,0.0,-999.0,99,-99.99,,,0.00,Acu-Link.com,2013-08-27 08:12:00,
2013-08-27 04:28:00,61.7,61.4,29.97,WSW,247,0.0,-999.0,99,-99.99,,,0.00,Acu-Link.com,2013-08-27 08:28:00,
2013-08-27 04:44:00,61.7,61.4,29.96,WSW,247,0.0,-999.0,99,-99.99,,,0.00,Acu-Link.com,2013-08-27 08:44:00,
2013-08-27 04:59:00,61.9,61.6,29.96,SW,225,0.0,-999.0,99,-99.99,,,0.00,Acu-Link.com,2013-08-27 08:59:00,
2013-08-27 05:14:00,61.9,61.6,29.95,South,180,0.0,-999.0,99,-99.99,,,0.00,Acu-Link.com,2013-08-27 09:14:00,
2013-08-27 05:29:00,61.9,61.6,29.95,West,270,0.0,-999.0,99,-99.99,,,0.00,Acu-Link.com,2013-08-27 09:29:00,
2013-08-27 05:44:00,62.4,62.1,29.96,SE,135,0.0,-999.0,99,-99.99,,,0.00,Acu-Link.com,2013-08-27 09:44:00,
2013-08-27 05:59:00,61.9,61.6,29.96,WSW,247,0.0,-999.0,99,-99.99,,,0.00,Acu-Link.com,2013-08-27 09:59:00,
2013-08-27 06:15:00,61.5,61.2,29.95,WSW,247,0.0,-999.0,99,-99.99,,,0.00,Acu-Link.com,2013-08-27 10:15:00,
2013-08-27 06:30:00,61.3,61.0,29.95,SW,225,0.0,-999.0,99,-99.99,,,0.00,Acu-Link.com,2013-08-27 10:30:00,
2013-08-27 06:45:00,61.2,60.9,29.96,SW,225,0.0,-999.0,99,-99.99,,,0.00,Acu-Link.com,2013-08-27 10:45:00,
2013-08-27 07:00:00,61.0,60.7,29.96,WSW,247,0.0,-999.0,99,-99.99,,,0.00,Acu-Link.com,2013-08-27 11:00:00,
2013-08-27 07:15:00,60.8,60.5,29.96,SW,225,0.0,-999.0,99,-99.99,,,0.00,Acu-Link.com,2013-08-27 11:15:00,
2013-08-27 07:30:00,61.2,60.9,29.96,SW,225,0.0,-999.0,99,-99.99,,,0.00,Acu-Link.com,2013-08-27 11:30:00,
2013-08-27 07:45:00,61.2,60.9,29.97,WSW,247,0.0,-999.0,99,-99.99,,,0.00,Acu-Link.com,2013-08-27 11:45:00,
2013-08-27 08:01:00,62.8,62.5,29.97,SSE,157,0.0,-999.0,99,-99.99,,,0.00,Acu-Link.com,2013-08-27 12:01:00,
2013-08-27 08:16:00,64.0,63.7,29.97,SW,225,0.0,-999.0,99,-99.99,,,0.00,Acu-Link.com,2013-08-27 12:16:00,
2013-08-27 08:31:00,66.9,66.6,29.98,SW,225,0.0,-999.0,99,-99.99,,,0.00,Acu-Link.com,2013-08-27 12:31:00,
2013-08-27 08:46:00,70.7,68.6,29.96,SE,135,0.0,-999.0,93,-99.99,,,0.00,Acu-Link.com,2013-08-27 12:46:00,
2013-08-27 09:01:00,73.8,69.7,29.95,SSE,157,0.0,-999.0,87,-99.99,,,0.00,Acu-Link.com,2013-08-27 13:01:00,
2013-08-27 09:16:00,76.1,70.5,29.95,ENE,67,0.0,-999.0,83,-99.99,,,0.00,Acu-Link.com,2013-08-27 13:16:00,
2013-08-27 09:31:00,79.3,71.4,29.96,ENE,67,2.2,-999.0,77,-99.99,,,0.00,Acu-Link.com,2013-08-27 13:31:00,
2013-08-27 09:47:00,82.8,72.0,29.92,ESE,112,2.7,-999.0,70,-99.99,,,0.00,Acu-Link.com,2013-08-27 13:47:00,
2013-08-27 10:02:00,82.8,72.0,29.93,SE,135,0.0,-999.0,70,-99.99,,,0.00,Acu-Link.com,2013-08-27 14:02:00,
2013-08-27 10:17:00,84.9,69.4,29.94,NE,45,2.2,-999.0,60,-99.99,,,0.00,Acu-Link.com,2013-08-27 14:17:00,
2013-08-27 10:32:00,84.9,70.4,29.93,ESE,112,2.7,-999.0,62,-99.99,,,0.00,Acu-Link.com,2013-08-27 14:32:00,
2013-08-27 10:47:00,85.5,71.4,29.93,North,0,3.7,-999.0,63,-99.99,,,0.00,Acu-Link.com,2013-08-27 14:47:00,
2013-08-27 11:02:00,87.1,71.0,29.91,ESE,112,1.1,-999.0,59,-99.99,,,0.00,Acu-Link.com,2013-08-27 15:02:00,
2013-08-27 11:17:00,89.2,72.5,29.92,SSW,202,0.0,-999.0,58,-99.99,,,0.00,Acu-Link.com,2013-08-27 15:17:00,
2013-08-27 11:32:00,92.7,72.5,29.92,South,180,0.0,-999.0,52,-99.99,,,0.00,Acu-Link.com,2013-08-27 15:32:00,
2013-08-27 11:47:00,91.6,71.4,29.92,WSW,247,0.0,-999.0,52,-99.99,,,0.00,Acu-Link.com,2013-08-27 15:47:00,
2013-08-27 12:03:00,94.1,72.6,29.89,West,270,2.7,-999.0,50,-99.99,,,0.00,Acu-Link.com,2013-08-27 16:03:00,
2013-08-27 12:18:00,95.4,72.5,29.88,SW,225,0.0,-999.0,48,-99.99,,,0.00,Acu-Link.com,2013-08-27 16:18:00,
2013-08-27 12:33:00,94.8,70.7,29.89,NNW,337,1.1,-999.0,46,-99.99,,,0.00,Acu-Link.com,2013-08-27 16:33:00,
2013-08-27 12:48:00,92.7,70.1,29.86,ENE,67,6.3,-999.0,48,-99.99,,,0.00,Acu-Link.com,2013-08-27 16:48:00,
2013-08-27 13:03:00,93.2,70.5,29.87,NNE,22,2.2,-999.0,48,-99.99,,,0.00,Acu-Link.com,2013-08-27 17:03:00,
2013-08-27 13:18:00,95.2,71.1,29.84,SE,135,5.3,-999.0,46,-99.99,,,0.00,Acu-Link.com,2013-08-27 17:18:00,
2013-08-27 13:34:00,92.8,69.6,29.84,WNW,292,2.2,-999.0,47,-99.99,,,0.00,Acu-Link.com,2013-08-27 17:34:00,
2013-08-27 13:49:00,93.9,69.9,29.82,WSW,247,2.2,-999.0,46,-99.99,,,0.00,Acu-Link.com,2013-08-27 17:49:00,
2013-08-27 14:04:00,95.4,70.6,29.84,East,90,4.2,-999.0,45,-99.99,,,0.00,Acu-Link.com,2013-08-27 18:04:00,
2013-08-27 14:19:00,92.8,71.4,29.84,South,180,0.0,-999.0,50,-99.99,,,0.00,Acu-Link.com,2013-08-27 18:19:00,
2013-08-27 14:34:00,92.1,69.5,29.82,ESE,112,2.2,-999.0,48,-99.99,,,0.00,Acu-Link.com,2013-08-27 18:34:00,
2013-08-27 14:49:00,94.1,71.4,29.83,SSE,157,0.0,-999.0,48,-99.99,,,0.00,Acu-Link.com,2013-08-27 18:49:00,
2013-08-27 15:04:00,94.1,70.7,29.81,ESE,112,0.0,-999.0,47,-99.99,,,0.00,Acu-Link.com,2013-08-27 19:04:00,
2013-08-27 15:20:00,90.1,71.2,29.80,WSW,247,0.0,-999.0,54,-99.99,,,0.00,Acu-Link.com,2013-08-27 19:20:00,
2013-08-27 15:35:00,90.0,73.7,29.81,NW,315,0.0,-999.0,59,-99.99,,,0.00,Acu-Link.com,2013-08-27 19:35:00,
2013-08-27 15:50:00,88.9,74.6,29.80,West,270,0.0,-999.0,63,-99.99,,,0.00,Acu-Link.com,2013-08-27 19:50:00,
2013-08-27 16:05:00,89.2,74.0,29.80,West,270,0.0,-999.0,61,-99.99,,,0.00,Acu-Link.com,2013-08-27 20:05:00,
2013-08-27 16:20:00,92.1,71.9,29.80,NNW,337,0.0,-999.0,52,-99.99,,,0.00,Acu-Link.com,2013-08-27 20:20:00,
2013-08-27 16:35:00,91.6,74.7,29.82,West,270,0.0,-999.0,58,-99.99,,,0.00,Acu-Link.com,2013-08-27 20:35:00,
2013-08-27 16:50:00,90.7,74.4,29.82,WNW,292,0.0,-999.0,59,-99.99,,,0.00,Acu-Link.com,2013-08-27 20:50:00,
2013-08-27 17:05:00,92.7,72.5,29.79,ESE,112,0.0,-999.0,52,-99.99,,,0.00,Acu-Link.com,2013-08-27 21:05:00,
2013-08-27 17:36:00,96.8,70.6,29.78,WSW,247,0.0,-999.0,43,-99.99,,,0.00,Acu-Link.com,2013-08-27 21:36:00,
2013-08-27 17:51:00,94.6,73.0,29.79,WSW,247,0.0,-999.0,50,-99.99,,,0.00,Acu-Link.com,2013-08-27 21:51:00,
2013-08-27 18:06:00,92.8,72.5,29.80,WNW,292,0.0,-999.0,52,-99.99,,,0.00,Acu-Link.com,2013-08-27 22:06:00,
2013-08-27 18:21:00,92.1,73.6,29.79,WSW,247,0.0,-999.0,55,-99.99,,,0.00,Acu-Link.com,2013-08-27 22:21:00,
2013-08-27 18:36:00,90.5,73.1,29.78,WSW,247,0.0,-999.0,57,-99.99,,,0.00,Acu-Link.com,2013-08-27 22:36:00,
2013-08-27 18:51:00,88.0,74.7,29.79,West,270,0.0,-999.0,65,-99.99,,,0.00,Acu-Link.com,2013-08-27 22:51:00,
2013-08-27 19:06:00,85.3,73.9,29.80,West,270,0.0,-999.0,69,-99.99,,,0.00,Acu-Link.com,2013-08-27 23:06:00,
2013-08-27 19:21:00,83.1,73.5,29.80,WNW,292,0.0,-999.0,73,-99.99,,,0.00,Acu-Link.com,2013-08-27 23:21:00,
2013-08-27 19:36:00,80.8,72.9,29.82,West,270,0.0,-999.0,77,-99.99,,,0.00,Acu-Link.com,2013-08-27 23:36:00,
2013-08-27 19:52:00,78.6,72.3,29.82,West,270,0.0,-999.0,81,-99.99,,,0.00,Acu-Link.com,2013-08-27 23:52:00,
2013-08-27 20:07:00,77.0,72.1,29.81,West,270,0.0,-999.0,85,-99.99,,,0.00,Acu-Link.com,2013-08-28 00:07:00,
2013-08-27 20:22:00,75.4,71.6,29.81,WSW,247,0.0,-999.0,88,-99.99,,,0.00,Acu-Link.com,2013-08-28 00:22:00,
2013-08-27 20:37:00,74.3,71.2,29.84,West,270,0.0,-999.0,90,-99.99,,,0.00,Acu-Link.com,2013-08-28 00:37:00,
2013-08-27 20:52:00,73.4,70.9,29.84,West,270,0.0,-999.0,92,-99.99,,,0.00,Acu-Link.com,2013-08-28 00:52:00,
2013-08-27 21:08:00,72.7,70.9,29.83,West,270,0.0,-999.0,94,-99.99,,,0.00,Acu-Link.com,2013-08-28 01:08:00,
2013-08-27 21:23:00,72.1,70.6,29.83,West,270,0.0,-999.0,95,-99.99,,,0.00,Acu-Link.com,2013-08-28 01:23:00,
2013-08-27 21:38:00,71.6,71.0,29.84,West,270,0.0,-999.0,98,-99.99,,,0.00,Acu-Link.com,2013-08-28 01:38:00,
2013-08-27 22:08:00,70.7,70.1,29.84,WSW,247,0.0,-999.0,98,-99.99,,,0.00,Acu-Link.com,2013-08-28 02:08:00,
2013-08-27 22:23:00,70.3,70.0,29.86,West,270,0.0,-999.0,99,-99.99,,,0.00,Acu-Link.com,2013-08-28 02:23:00,
2013-08-27 22:38:00,70.2,69.9,29.85,West,270,0.0,-999.0,99,-99.99,,,0.00,Acu-Link.com,2013-08-28 02:38:00,
2013-08-27 23:09:00,69.4,69.1,29.86,WSW,247,0.0,-999.0,99,-99.99,,,0.00,Acu-Link.com,2013-08-28 03:09:00,
2013-08-27 23:24:00,69.1,68.8,29.86,West,270,0.0,-999.0,99,-99.99,,,0.00,Acu-Link.com,2013-08-28 03:24:00,
2013-08-27 23:39:00,68.7,68.4,29.86,SW,225,0.0,-999.0,99,-99.99,,,0.00,Acu-Link.com,2013-08-28 03:39:00,
2013-08-27 23:54:00,68.4,68.1,29.86,West,270,0.0,-999.0,99,-99.99,,,0.00,Acu-Link.com,2013-08-28 03:54:00,